Time;durP1;ratioP1;P1;durP2;ratioP2;P2;SDS_P1;SDS_P2;PMS_P1;PMS_P2;Temp;Humidity;BMP_temperature;BMP_pressure;BME280_temperature;BME280_humidity;BME280_pressure;Samples;Min_cycle;Max_cycle;Signal;HPM_P1;HPM_P2
2023/01/26 00:00:46;;;;;;;;;;;;;;;2.09;100.00;99639.93;67676;1278;1015917;-59
2023/01/26 00:03:55;;;;;;;;;;;;;;;2.12;100.00;99633.51;67816;1278;1016358;-59
2023/01/26 00:06:58;;;;;;;;;;;;;;;2.13;100.00;99632.82;67846;1278;1016231;-59
2023/01/26 00:10:00;;;;;;;;;;;;;;;2.05;100.00;99634.29;65235;1278;5388110;-60
2023/01/26 00:13:02;;;;;;;;;;;;;;;1.93;100.00;99628.23;67779;1278;1017610;-60
2023/01/26 00:16:14;;;;;;;;;;;;;;;1.94;100.00;99622.19;67808;1278;1016464;-59
2023/01/26 00:19:16;;;;;;;;;;;;;;;1.98;100.00;99624.73;67792;1278;1018238;-59
2023/01/26 00:22:19;;;;;;;;;;;;;;;1.90;100.00;99622.77;67767;1278;1016377;-59
2023/01/26 00:25:21;;;;;;;;;;;;;;;1.87;100.00;99618.48;67816;1278;1016490;-59
2023/01/26 00:28:23;;;;;;;;;;;;;;;1.82;100.00;99615.96;67834;1278;1016432;-59
2023/01/26 00:31:26;;;;;;;;;;;;;;;1.76;100.00;99618.61;67811;1278;1016469;-59
2023/01/26 00:34:28;;;;;;;;;;;;;;;1.74;100.00;99623.65;67835;1278;1018576;-59
2023/01/26 00:37:30;;;;;;;;;;;;;;;1.71;100.00;99625.57;67784;1278;1016214;-59
2023/01/26 00:40:33;;;;;;;;;;;;;;;1.70;100.00;99625.41;67774;1278;1018541;-59
2023/01/26 00:43:35;;;;;;;;;;;;;;;1.70;100.00;99621.61;67777;1278;1016605;-60
2023/01/26 00:46:38;;;;;;;;;;;;;;;1.72;100.00;99615.55;67830;1278;1016282;-59
2023/01/26 00:49:40;;;;;;;;;;;;;;;1.77;100.00;99616.02;67846;1278;1019691;-59
2023/01/26 00:52:43;;;;;;;;;;;;;;;1.86;100.00;99613.50;67753;1278;1016345;-59
2023/01/26 00:55:45;;;;;;;;;;;;;;;1.89;100.00;99608.98;67736;1278;1016065;-59
2023/01/26 00:58:47;;;;;;;;;;;;;;;1.80;100.00;99605.82;67717;1278;1016336;-59
2023/01/26 01:01:50;;;;;;;;;;;;;;;1.73;100.00;99605.55;67758;1278;1016219;-59
2023/01/26 01:04:52;;;;;;;;;;;;;;;1.64;100.00;99602.90;67804;1278;1018069;-60
2023/01/26 01:07:55;;;;;;;;;;;;;;;1.62;100.00;99600.00;67823;1278;1016724;-59
2023/01/26 01:10:57;;;;;;;;;;;;;;;1.54;100.00;99610.42;67820;1278;1016289;-59
2023/01/26 01:13:59;;;;;;;;;;;;;;;1.59;100.00;99606.75;67782;1278;1016431;-59
2023/01/26 01:17:02;;;;;;;;;;;;;;;1.66;100.00;99605.98;67779;1278;1016488;-59
2023/01/26 01:20:04;;;;;;;;;;;;;;;1.74;100.00;99603.13;67728;1278;1016497;-59
2023/01/26 01:23:07;;;;;;;;;;;;;;;1.76;100.00;99605.86;67838;1278;1016265;-60
2023/01/26 01:26:09;;;;;;;;;;;;;;;1.83;100.00;99599.38;67731;1278;1016142;-59
2023/01/26 01:29:12;;;;;;;;;;;;;;;1.81;100.00;99602.02;67705;1278;1016283;-59
2023/01/26 01:32:14;;;;;;;;;;;;;;;1.78;100.00;99607.21;67674;1278;1015859;-59
2023/01/26 01:35:16;;;;;;;;;;;;;;;1.71;100.00;99609.01;67797;1278;1016394;-59
2023/01/26 01:38:19;;;;;;;;;;;;;;;1.66;100.00;99609.77;67841;1278;1016473;-59
2023/01/26 01:41:22;;;;;;;;;;;;;;;1.62;100.00;99604.64;67804;1278;1015841;-59
2023/01/26 01:44:25;;;;;;;;;;;;;;;1.68;100.00;99594.05;67850;1278;1016309;-59
2023/01/26 01:47:27;;;;;;;;;;;;;;;1.68;100.00;99596.13;67752;1278;1016593;-59
2023/01/26 01:50:29;;;;;;;;;;;;;;;1.60;100.00;99590.88;67709;1278;1016602;-59
2023/01/26 01:53:32;;;;;;;;;;;;;;;1.55;100.00;99586.11;67746;1278;1016397;-59
2023/01/26 01:56:34;;;;;;;;;;;;;;;1.50;100.00;99583.58;67693;1278;1016280;-59
2023/01/26 01:59:37;;;;;;;;;;;;;;;1.48;100.00;99586.38;67828;1278;1016291;-59
2023/01/26 02:02:40;;;;;;;;;;;;;;;1.49;100.00;99582.39;67816;1278;1019367;-59
2023/01/26 02:05:42;;;;;;;;;;;;;;;1.54;100.00;99577.49;67800;1278;1016231;-59
2023/01/26 02:08:44;;;;;;;;;;;;;;;1.54;100.00;99575.27;67689;1278;1016846;-59
2023/01/26 02:11:47;;;;;;;;;;;;;;;1.49;100.00;99566.53;67763;1278;1018008;-59
2023/01/26 02:14:50;;;;;;;;;;;;;;;1.48;100.00;99562.23;67753;1278;1016332;-59
2023/01/26 02:17:52;;;;;;;;;;;;;;;1.51;100.00;99555.98;67780;1278;1016012;-59
2023/01/26 02:20:55;;;;;;;;;;;;;;;1.49;100.00;99550.49;67795;1278;1016469;-59
2023/01/26 02:23:57;;;;;;;;;;;;;;;1.46;100.00;99544.50;67846;1278;1016085;-59
2023/01/26 02:26:59;;;;;;;;;;;;;;;1.50;100.00;99534.98;67828;1278;1016546;-60
2023/01/26 02:30:02;;;;;;;;;;;;;;;1.52;100.00;99533.75;67820;1278;1016519;-59
2023/01/26 02:33:04;;;;;;;;;;;;;;;1.52;100.00;99533.05;67767;1278;1016433;-59
2023/01/26 02:36:07;;;;;;;;;;;;;;;1.51;100.00;99529.45;67818;1278;1016201;-59
2023/01/26 02:39:09;;;;;;;;;;;;;;;1.50;100.00;99522.39;67824;1278;1015820;-59
2023/01/26 02:45:32;;;;;;;;;;;;;;;1.44;100.00;99518.34;67840;1278;1016419;-59
2023/01/26 02:51:54;;;;;;;;;;;;;;;1.32;100.00;99522.10;67810;1278;1016485;-58
2023/01/26 02:58:17;;;;;;;;;;;;;;;1.41;100.00;99512.86;67814;1278;1017175;-58
2023/01/26 03:01:19;;;;;;;;;;;;;;;1.43;100.00;99512.31;67856;1278;1016479;-58
2023/01/26 03:04:22;;;;;;;;;;;;;;;1.41;100.00;99508.36;67833;1278;1018878;-58
2023/01/26 03:07:24;;;;;;;;;;;;;;;1.34;100.00;99501.73;67747;1278;1016463;-59
2023/01/26 03:10:26;;;;;;;;;;;;;;;1.31;100.00;99500.92;67713;1278;1016506;-59
2023/01/26 03:13:29;;;;;;;;;;;;;;;1.29;100.00;99496.62;67647;1278;1016375;-58
2023/01/26 03:16:31;;;;;;;;;;;;;;;1.21;100.00;99493.81;67803;1278;1016441;-58
2023/01/26 03:29:30;;;;;;;;;;;;;;;1.22;100.00;99493.79;67804;1278;1016205;-58
2023/01/26 03:32:33;;;;;;;;;;;;;;;1.29;100.00;99492.15;67802;1278;1016325;-58
2023/01/26 03:35:35;;;;;;;;;;;;;;;1.32;100.00;99485.21;67808;1278;1016204;-58
2023/01/26 03:38:38;;;;;;;;;;;;;;;1.28;100.00;99490.10;67833;1278;1018350;-58
2023/01/26 03:58:20;;;;;;;;;;;;;;;1.17;100.00;99468.88;67821;1278;1016397;-58
2023/01/26 04:01:28;;;;;;;;;;;;;;;1.22;100.00;99473.80;67806;1278;1018188;-59
2023/01/26 04:11:11;;;;;;;;;;;;;;;1.26;100.00;99461.00;67804;1278;1016718;-59
2023/01/26 04:24:16;;;;;;;;;;;;;;;1.26;100.00;99436.02;67776;1278;1016609;-58
2023/01/26 04:27:19;;;;;;;;;;;;;;;1.31;100.00;99436.13;67798;1278;1016467;-58
2023/01/26 04:30:21;;;;;;;;;;;;;;;1.27;100.00;99428.43;67762;1278;1015878;-58
2023/01/26 04:33:23;;;;;;;;;;;;;;;1.13;100.00;99426.02;67700;1278;1016305;-58
2023/01/26 04:36:26;;;;;;;;;;;;;;;0.99;100.00;99428.44;67869;1278;1016846;-58
2023/01/26 04:39:28;;;;;;;;;;;;;;;0.91;100.00;99428.89;67877;1278;1017385;-58
2023/01/26 04:42:30;;;;;;;;;;;;;;;0.91;100.00;99426.65;67852;1278;1016466;-58
2023/01/26 04:45:33;;;;;;;;;;;;;;;0.89;100.00;99429.08;67800;1278;1015926;-58
2023/01/26 04:48:35;;;;;;;;;;;;;;;0.91;100.00;99434.04;67808;1278;1016533;-58
2023/01/26 04:51:38;;;;;;;;;;;;;;;0.86;100.00;99432.55;67832;1278;1016413;-57
2023/01/26 04:54:40;;;;;;;;;;;;;;;0.94;100.00;99429.70;67870;1278;1016286;-58
2023/01/26 04:57:42;;;;;;;;;;;;;;;1.06;100.00;99426.98;67831;1278;1016123;-58
2023/01/26 05:00:45;;;;;;;;;;;;;;;1.08;100.00;99420.40;67799;1278;1015838;-58
2023/01/26 05:03:47;;;;;;;;;;;;;;;1.08;100.00;99417.13;67810;1278;1016434;-58
2023/01/26 05:06:50;;;;;;;;;;;;;;;1.13;100.00;99417.92;67809;1278;1016550;-58
2023/01/26 05:09:54;;;;;;;;;;;;;;;1.23;100.00;99420.05;67812;1278;1016380;-57
2023/01/26 05:12:56;;;;;;;;;;;;;;;1.20;100.00;99422.83;67854;1278;1016468;-58
2023/01/26 05:15:59;;;;;;;;;;;;;;;1.16;100.00;99423.40;67875;1278;1016492;-57
2023/01/26 05:19:01;;;;;;;;;;;;;;;1.14;100.00;99418.44;67829;1278;1016195;-58
2023/01/26 05:22:04;;;;;;;;;;;;;;;1.06;100.00;99420.61;67782;1278;1016470;-58
2023/01/26 05:25:06;;;;;;;;;;;;;;;1.03;100.00;99425.63;67794;1278;1016450;-58
2023/01/26 05:28:08;;;;;;;;;;;;;;;1.10;100.00;99426.06;67810;1278;1016648;-58
2023/01/26 05:31:11;;;;;;;;;;;;;;;1.15;100.00;99423.59;67837;1278;1016426;-58
2023/01/26 05:34:13;;;;;;;;;;;;;;;1.14;100.00;99418.61;67841;1278;1016671;-58
2023/01/26 05:37:15;;;;;;;;;;;;;;;1.22;100.00;99421.93;67846;1278;1016239;-58
2023/01/26 05:40:18;;;;;;;;;;;;;;;1.24;100.00;99423.64;67810;1278;1016616;-57
2023/01/26 05:43:21;;;;;;;;;;;;;;;1.28;100.00;99429.11;67844;1278;1016185;-58
2023/01/26 05:46:23;;;;;;;;;;;;;;;1.24;100.00;99427.94;67851;1278;1016393;-58
2023/01/26 05:49:25;;;;;;;;;;;;;;;1.16;100.00;99419.45;67832;1278;1016431;-58
2023/01/26 05:52:28;;;;;;;;;;;;;;;1.12;100.00;99418.80;67819;1278;1018037;-58
2023/01/26 05:55:30;;;;;;;;;;;;;;;1.13;100.00;99419.30;67828;1278;1016189;-58
2023/01/26 05:58:32;;;;;;;;;;;;;;;1.07;100.00;99418.52;67780;1278;1016205;-58
2023/01/26 06:01:35;;;;;;;;;;;;;;;1.08;100.00;99418.86;67820;1278;1018007;-58
2023/01/26 06:04:37;;;;;;;;;;;;;;;1.01;100.00;99418.25;67868;1278;1016215;-58
2023/01/26 06:07:40;;;;;;;;;;;;;;;0.99;100.00;99417.08;67798;1278;1016324;-58
2023/01/26 06:10:42;;;;;;;;;;;;;;;1.03;100.00;99410.31;67781;1278;1016444;-58
2023/01/26 06:13:44;;;;;;;;;;;;;;;1.11;100.00;99413.81;67814;1278;1016243;-58
2023/01/26 06:16:47;;;;;;;;;;;;;;;1.05;100.00;99413.20;67821;1278;1016516;-58
2023/01/26 06:19:49;;;;;;;;;;;;;;;1.03;100.00;99407.03;67877;1278;1016399;-58
2023/01/26 06:22:51;;;;;;;;;;;;;;;0.98;100.00;99407.95;67852;1278;1016312;-58
2023/01/26 06:25:54;;;;;;;;;;;;;;;0.88;100.00;99411.86;67774;1278;1016222;-58
2023/01/26 06:28:56;;;;;;;;;;;;;;;0.93;100.00;99413.02;67821;1278;1016407;-58
2023/01/26 06:31:59;;;;;;;;;;;;;;;1.04;100.00;99408.73;67830;1278;1016365;-58
2023/01/26 06:35:02;;;;;;;;;;;;;;;1.05;100.00;99404.77;67761;1278;1018514;-58
2023/01/26 06:38:04;;;;;;;;;;;;;;;1.05;100.00;99407.35;67798;1278;1017576;-58
2023/01/26 06:41:07;;;;;;;;;;;;;;;1.02;100.00;99407.89;67776;1278;1016841;-58
2023/01/26 06:44:09;;;;;;;;;;;;;;;1.08;100.00;99407.14;67814;1278;1016348;-58
2023/01/26 06:47:13;;;;;;;;;;;;;;;1.07;100.00;99403.20;67842;1278;1016460;-58
2023/01/26 06:50:16;;;;;;;;;;;;;;;1.04;100.00;99405.47;67854;1278;1016723;-58
2023/01/26 06:53:18;;;;;;;;;;;;;;;1.11;100.00;99399.35;67732;1278;1016494;-58
2023/01/26 06:56:20;;;;;;;;;;;;;;;1.11;100.00;99401.77;67813;1278;1016322;-58
2023/01/26 06:59:23;;;;;;;;;;;;;;;1.07;100.00;99400.27;67800;1278;1016294;-58
2023/01/26 07:02:25;;;;;;;;;;;;;;;1.12;100.00;99399.34;67784;1278;1015912;-58
2023/01/26 07:05:28;;;;;;;;;;;;;;;1.08;100.00;99396.80;67855;1278;1016440;-58
2023/01/26 07:08:30;;;;;;;;;;;;;;;1.06;100.00;99400.11;67797;1278;1016224;-58
2023/01/26 07:11:32;;;;;;;;;;;;;;;1.06;100.00;99402.00;67812;1278;1018856;-58
2023/01/26 07:14:35;;;;;;;;;;;;;;;1.01;100.00;99405.67;67810;1278;1016639;-58
2023/01/26 07:17:37;;;;;;;;;;;;;;;1.02;100.00;99400.67;67823;1278;1015893;-58
2023/01/26 07:20:40;;;;;;;;;;;;;;;0.96;100.00;99402.30;67821;1278;1016266;-58
2023/01/26 07:23:42;;;;;;;;;;;;;;;1.05;100.00;99406.14;67803;1278;1016338;-58
2023/01/26 07:26:45;;;;;;;;;;;;;;;1.16;100.00;99404.63;67822;1278;1016361;-58
2023/01/26 07:29:48;;;;;;;;;;;;;;;1.19;100.00;99406.64;67863;1278;1018842;-58
2023/01/26 07:32:51;;;;;;;;;;;;;;;1.18;100.00;99404.93;67821;1278;1016744;-58
2023/01/26 07:35:53;;;;;;;;;;;;;;;1.20;100.00;99405.42;67790;1278;1015969;-58
2023/01/26 07:38:55;;;;;;;;;;;;;;;1.17;100.00;99403.92;67857;1278;1016228;-58
2023/01/26 07:41:58;;;;;;;;;;;;;;;1.28;100.00;99406.35;67859;1278;1018694;-58
2023/01/26 07:45:00;;;;;;;;;;;;;;;1.39;100.00;99400.67;67799;1278;1016344;-58
2023/01/26 07:48:03;;;;;;;;;;;;;;;1.49;100.00;99405.38;67824;1278;1019609;-58
2023/01/26 07:51:07;;;;;;;;;;;;;;;1.56;100.00;99404.91;67822;1278;1016887;-58
2023/01/26 07:54:09;;;;;;;;;;;;;;;1.52;100.00;99405.84;67848;1278;1016012;-58
2023/01/26 07:57:12;;;;;;;;;;;;;;;1.27;100.00;99402.58;67869;1278;1016483;-58
2023/01/26 08:00:14;;;;;;;;;;;;;;;1.29;100.00;99400.66;67837;1278;1016303;-58
2023/01/26 08:03:16;;;;;;;;;;;;;;;1.32;100.00;99403.03;67800;1278;1016475;-58
2023/01/26 08:06:19;;;;;;;;;;;;;;;1.42;100.00;99404.27;67795;1278;1016250;-58
2023/01/26 08:09:21;;;;;;;;;;;;;;;1.44;100.00;99406.48;67878;1278;1016433;-58
2023/01/26 08:12:24;;;;;;;;;;;;;;;1.37;100.00;99408.83;67805;1278;1016445;-58
2023/01/26 08:15:26;;;;;;;;;;;;;;;1.30;100.00;99411.16;67854;1278;1015905;-58
2023/01/26 08:18:28;;;;;;;;;;;;;;;1.40;100.00;99411.70;67708;1278;1016230;-58
2023/01/26 08:21:31;;;;;;;;;;;;;;;1.49;100.00;99413.82;67797;1278;1016410;-58
2023/01/26 08:24:33;;;;;;;;;;;;;;;1.52;100.00;99407.21;67792;1278;1016836;-57
2023/01/26 08:27:36;;;;;;;;;;;;;;;1.61;100.00;99403.48;67864;1276;1018932;-58
2023/01/26 08:30:38;;;;;;;;;;;;;;;1.63;100.00;99402.23;67853;1278;1015721;-58
2023/01/26 08:33:41;;;;;;;;;;;;;;;1.63;100.00;99397.05;67857;1278;1016314;-58
2023/01/26 08:36:43;;;;;;;;;;;;;;;1.66;100.00;99399.61;67831;1278;1016527;-57
2023/01/26 08:39:46;;;;;;;;;;;;;;;1.71;100.00;99396.77;67863;1278;1016493;-57
2023/01/26 08:42:48;;;;;;;;;;;;;;;1.69;100.00;99398.88;67875;1278;1016595;-57
2023/01/26 08:45:50;;;;;;;;;;;;;;;1.68;100.00;99393.00;67808;1278;1016231;-58
2023/01/26 08:48:53;;;;;;;;;;;;;;;1.71;100.00;99386.93;67820;1278;1018863;-58
2023/01/26 08:51:55;;;;;;;;;;;;;;;1.74;100.00;99387.59;67872;1278;1015670;-58
2023/01/26 08:54:59;;;;;;;;;;;;;;;1.76;100.00;99384.09;67800;1278;1016262;-58
2023/01/26 08:58:01;;;;;;;;;;;;;;;1.77;100.00;99380.97;67804;1278;1016376;-58
2023/01/26 09:01:03;;;;;;;;;;;;;;;1.73;100.00;99383.28;67805;1278;1016354;-58
2023/01/26 09:04:06;;;;;;;;;;;;;;;1.75;100.00;99379.11;67877;1278;1016804;-58
2023/01/26 09:07:08;;;;;;;;;;;;;;;1.70;100.00;99378.16;67868;1278;1016451;-58
2023/01/26 09:10:10;;;;;;;;;;;;;;;1.61;100.00;99373.48;67841;1278;1017135;-58
2023/01/26 09:13:13;;;;;;;;;;;;;;;1.64;100.00;99376.35;67818;1278;1015910;-58
2023/01/26 09:16:15;;;;;;;;;;;;;;;1.60;100.00;99374.86;67800;1278;1015865;-58
2023/01/26 09:19:18;;;;;;;;;;;;;;;1.67;100.00;99372.16;67747;1278;1016154;-58
2023/01/26 09:22:20;;;;;;;;;;;;;;;1.68;100.00;99374.21;67863;1278;1016447;-57
2023/01/26 09:25:22;;;;;;;;;;;;;;;1.66;100.00;99375.11;67858;1278;1016263;-58
2023/01/26 09:28:25;;;;;;;;;;;;;;;1.52;100.00;99376.70;67796;1278;1016256;-58
2023/01/26 09:31:27;;;;;;;;;;;;;;;1.38;100.00;99375.36;67818;1278;1016475;-57
2023/01/26 09:34:30;;;;;;;;;;;;;;;1.32;100.00;99372.35;67786;1278;1016425;-57
2023/01/26 09:37:32;;;;;;;;;;;;;;;1.29;100.00;99372.03;67735;1278;1016665;-57
2023/01/26 09:40:34;;;;;;;;;;;;;;;1.30;100.00;99367.21;67760;1278;1016015;-58
2023/01/26 09:43:37;;;;;;;;;;;;;;;1.11;100.00;99361.27;67844;1278;1018655;-58
2023/01/26 09:46:39;;;;;;;;;;;;;;;1.14;100.00;99362.80;67809;1278;1016142;-58
2023/01/26 09:49:42;;;;;;;;;;;;;;;1.11;100.00;99363.02;67791;1278;1016484;-58
2023/01/26 09:52:44;;;;;;;;;;;;;;;0.98;100.00;99368.70;67828;1278;1016270;-58
2023/01/26 09:55:46;;;;;;;;;;;;;;;0.97;100.00;99361.64;67824;1278;1016362;-58
2023/01/26 09:58:49;;;;;;;;;;;;;;;1.03;100.00;99362.41;67849;1278;1016351;-57
2023/01/26 10:01:51;;;;;;;;;;;;;;;1.13;100.00;99363.31;67837;1278;1016065;-58
2023/01/26 10:04:53;;;;;;;;;;;;;;;1.30;100.00;99361.52;67812;1278;1016622;-58
2023/01/26 10:07:56;;;;;;;;;;;;;;;1.41;100.00;99359.30;67812;1278;1016456;-58
2023/01/26 10:10:58;;;;;;;;;;;;;;;1.36;100.00;99349.39;67847;1278;1016396;-58
2023/01/26 10:14:01;;;;;;;;;;;;;;;1.20;100.00;99350.12;67863;1278;1016196;-58
2023/01/26 10:17:03;;;;;;;;;;;;;;;1.00;100.00;99344.89;67771;1278;1016403;-58
2023/01/26 10:20:06;;;;;;;;;;;;;;;0.96;100.00;99339.44;67851;1278;1015631;-58
2023/01/26 10:23:08;;;;;;;;;;;;;;;0.93;100.00;99337.58;67804;1278;1017025;-57
2023/01/26 10:26:11;;;;;;;;;;;;;;;0.81;100.00;99339.13;67869;1278;1016436;-58
2023/01/26 10:29:14;;;;;;;;;;;;;;;0.60;100.00;99341.95;67857;1278;1018712;-58
2023/01/26 10:32:16;;;;;;;;;;;;;;;0.35;100.00;99344.49;67824;1278;1016352;-58
2023/01/26 10:35:19;;;;;;;;;;;;;;;0.15;100.00;99340.41;67805;1278;1016511;-58
2023/01/26 10:38:21;;;;;;;;;;;;;;;0.16;100.00;99339.20;67863;1278;1016977;-58
2023/01/26 10:41:24;;;;;;;;;;;;;;;0.34;100.00;99330.90;67792;1278;1016931;-58
2023/01/26 10:44:26;;;;;;;;;;;;;;;0.48;100.00;99323.18;67776;1278;1016047;-58
2023/01/26 10:47:28;;;;;;;;;;;;;;;0.58;100.00;99320.83;67681;1278;1016386;-58
2023/01/26 10:50:31;;;;;;;;;;;;;;;0.72;100.00;99324.08;67818;1278;1016442;-58
2023/01/26 10:53:34;;;;;;;;;;;;;;;0.84;100.00;99321.17;67860;1278;1015997;-58
2023/01/26 10:56:37;;;;;;;;;;;;;;;0.98;100.00;99316.16;67818;1278;1018495;-58
2023/01/26 10:59:40;;;;;;;;;;;;;;;1.05;100.00;99302.63;67812;1278;1016260;-59
2023/01/26 11:02:43;;;;;;;;;;;;;;;1.09;100.00;99294.47;67799;1278;1016413;-58
2023/01/26 11:05:46;;;;;;;;;;;;;;;1.05;100.00;99289.02;67843;1278;1016244;-58
2023/01/26 11:08:49;;;;;;;;;;;;;;;1.12;100.00;99288.05;67798;1278;1016510;-58
2023/01/26 11:11:51;;;;;;;;;;;;;;;1.30;100.00;99284.67;67741;1278;1016494;-58
2023/01/26 11:14:54;;;;;;;;;;;;;;;1.54;100.00;99278.61;67840;1278;1019623;-58
2023/01/26 11:17:57;;;;;;;;;;;;;;;1.59;100.00;99273.18;67842;1278;1016323;-57
2023/01/26 11:21:00;;;;;;;;;;;;;;;1.66;100.00;99272.34;67774;1278;1016400;-58
2023/01/26 11:24:02;;;;;;;;;;;;;;;1.80;100.00;99270.73;67831;1278;1016343;-57
2023/01/26 11:27:04;;;;;;;;;;;;;;;1.94;100.00;99270.84;67759;1278;1018913;-58
2023/01/26 11:30:07;;;;;;;;;;;;;;;1.87;100.00;99266.29;67815;1278;1016172;-58
2023/01/26 11:33:09;;;;;;;;;;;;;;;1.91;100.00;99263.45;67797;1278;1016497;-57
2023/01/26 11:36:12;;;;;;;;;;;;;;;2.06;100.00;99269.23;67871;1278;1016177;-58
2023/01/26 11:39:15;;;;;;;;;;;;;;;2.10;100.00;99259.66;67786;1278;1015933;-58
2023/01/26 11:42:18;;;;;;;;;;;;;;;2.16;100.00;99252.45;67851;1278;1016330;-58
2023/01/26 11:45:20;;;;;;;;;;;;;;;2.30;100.00;99246.47;67864;1278;1016478;-58
2023/01/26 11:48:23;;;;;;;;;;;;;;;2.40;100.00;99245.42;67838;1278;1016402;-58
2023/01/26 11:51:25;;;;;;;;;;;;;;;2.40;100.00;99244.05;67819;1278;1016374;-58
2023/01/26 11:54:28;;;;;;;;;;;;;;;2.42;100.00;99238.64;67761;1278;1016244;-58
2023/01/26 11:57:30;;;;;;;;;;;;;;;2.38;100.00;99235.44;67804;1278;1016310;-58
2023/01/26 12:00:32;;;;;;;;;;;;;;;2.39;100.00;99230.26;67862;1278;1016327;-58
2023/01/26 12:03:35;;;;;;;;;;;;;;;2.40;100.00;99228.32;67860;1278;1018033;-58
2023/01/26 12:06:37;;;;;;;;;;;;;;;2.45;100.00;99220.45;67855;1278;1018947;-58
2023/01/26 12:09:41;;;;;;;;;;;;;;;2.50;100.00;99214.48;65274;1278;6383197;-59
2023/01/26 12:12:44;;;;;;;;;;;;;;;2.46;100.00;99212.49;67815;1278;1016423;-58
2023/01/26 12:15:47;;;;;;;;;;;;;;;2.29;100.00;99210.43;67852;1278;1017290;-58
2023/01/26 12:18:49;;;;;;;;;;;;;;;2.32;100.00;99206.05;67815;1278;1016365;-58
2023/01/26 12:21:51;;;;;;;;;;;;;;;2.34;100.00;99210.84;67795;1278;1017305;-58
2023/01/26 12:24:54;;;;;;;;;;;;;;;2.34;100.00;99209.11;67797;1278;1016740;-58
2023/01/26 12:31:34;;;;;;;;;;;;;;;2.49;100.00;99196.20;67796;1278;1016846;-58
2023/01/26 12:34:36;;;;;;;;;;;;;;;2.40;100.00;99195.54;67845;1278;1016310;-58
2023/01/26 12:37:39;;;;;;;;;;;;;;;2.24;100.00;99194.33;67890;1278;1016124;-58
2023/01/26 12:40:41;;;;;;;;;;;;;;;2.21;100.00;99191.10;67844;1278;1016426;-58
2023/01/26 12:43:44;;;;;;;;;;;;;;;2.30;100.00;99191.44;67811;1278;1016462;-58
2023/01/26 12:46:46;;;;;;;;;;;;;;;2.27;100.00;99188.56;67826;1278;1015758;-59
2023/01/26 12:49:49;;;;;;;;;;;;;;;2.22;100.00;99191.09;67848;1278;1016311;-59
2023/01/26 12:52:51;;;;;;;;;;;;;;;2.21;100.00;99195.23;67817;1278;1018013;-58
2023/01/26 12:55:53;;;;;;;;;;;;;;;2.14;100.00;99194.70;67814;1278;1015885;-58
2023/01/26 12:58:56;;;;;;;;;;;;;;;2.14;100.00;99191.77;67813;1278;1016149;-59
2023/01/26 13:01:58;;;;;;;;;;;;;;;2.19;100.00;99190.63;67802;1278;1016304;-58
2023/01/26 13:05:00;;;;;;;;;;;;;;;2.23;100.00;99193.98;67794;1278;1019082;-58
2023/01/26 13:08:03;;;;;;;;;;;;;;;2.36;100.00;99193.03;67810;1278;1016262;-58
2023/01/26 13:11:05;;;;;;;;;;;;;;;2.43;100.00;99189.94;67863;1278;1016410;-58
2023/01/26 13:14:08;;;;;;;;;;;;;;;2.49;100.00;99189.98;67832;1278;1015829;-58
2023/01/26 13:17:10;;;;;;;;;;;;;;;2.58;100.00;99190.48;67807;1278;1016285;-58
2023/01/26 13:20:12;;;;;;;;;;;;;;;2.61;100.00;99189.71;67822;1278;1016248;-58
2023/01/26 13:23:15;;;;;;;;;;;;;;;2.63;100.00;99189.50;67784;1278;1016315;-58
2023/01/26 13:26:17;;;;;;;;;;;;;;;2.59;100.00;99189.75;67863;1278;1017276;-58
2023/01/26 13:29:20;;;;;;;;;;;;;;;2.66;100.00;99191.33;67806;1278;1016433;-58
2023/01/26 13:32:22;;;;;;;;;;;;;;;2.70;100.00;99188.64;67727;1278;1016189;-58
2023/01/26 13:35:25;;;;;;;;;;;;;;;2.73;100.00;99185.31;67823;1278;1018894;-58
2023/01/26 13:38:27;;;;;;;;;;;;;;;2.60;100.00;99187.31;67794;1278;1015886;-58
2023/01/26 13:41:29;;;;;;;;;;;;;;;2.27;100.00;99184.41;67861;1278;1016349;-58
2023/01/26 13:44:32;;;;;;;;;;;;;;;2.23;100.00;99182.60;67824;1278;1016363;-58
2023/01/26 13:47:34;;;;;;;;;;;;;;;2.26;100.00;99179.27;67824;1278;1016398;-58
2023/01/26 13:50:37;;;;;;;;;;;;;;;2.13;100.00;99182.46;67817;1278;1016175;-58
2023/01/26 13:53:41;;;;;;;;;;;;;;;1.79;100.00;99183.15;67858;1278;1018052;-59
2023/01/26 13:56:43;;;;;;;;;;;;;;;1.58;100.00;99178.54;67825;1278;1016532;-58
2023/01/26 13:59:45;;;;;;;;;;;;;;;1.48;100.00;99174.08;67885;1278;1016801;-58
2023/01/26 14:02:48;;;;;;;;;;;;;;;1.46;100.00;99172.23;67829;1278;1016462;-58
2023/01/26 14:05:51;;;;;;;;;;;;;;;1.51;100.00;99170.06;67807;1278;1016410;-58
2023/01/26 14:08:53;;;;;;;;;;;;;;;1.53;100.00;99168.30;67809;1278;1016180;-58
2023/01/26 14:11:55;;;;;;;;;;;;;;;1.58;100.00;99169.23;67874;1278;1016369;-58
2023/01/26 14:14:58;;;;;;;;;;;;;;;1.51;100.00;99170.40;67842;1278;1017420;-58
2023/01/26 14:18:01;;;;;;;;;;;;;;;1.62;100.00;99171.23;67778;1278;1016324;-58
2023/01/26 14:21:04;;;;;;;;;;;;;;;1.74;100.00;99167.39;67829;1278;1016348;-59
2023/01/26 14:24:06;;;;;;;;;;;;;;;1.82;100.00;99170.67;67823;1278;1016285;-58
2023/01/26 14:27:08;;;;;;;;;;;;;;;1.83;100.00;99168.41;67807;1278;1018753;-58
2023/01/26 14:30:11;;;;;;;;;;;;;;;1.76;100.00;99162.69;67834;1278;1016516;-58
2023/01/26 14:33:13;;;;;;;;;;;;;;;1.74;100.00;99161.02;67739;1278;1015826;-58
2023/01/26 14:36:16;;;;;;;;;;;;;;;1.81;100.00;99163.81;67819;1278;1016290;-58
2023/01/26 14:39:18;;;;;;;;;;;;;;;1.75;100.00;99166.15;67821;1278;1016125;-58
2023/01/26 14:42:20;;;;;;;;;;;;;;;1.55;100.00;99173.44;67846;1278;1016413;-59
2023/01/26 14:45:23;;;;;;;;;;;;;;;1.34;100.00;99175.36;67698;1278;1016259;-58
2023/01/26 14:48:25;;;;;;;;;;;;;;;1.29;100.00;99172.52;67821;1278;1016419;-58
2023/01/26 14:51:28;;;;;;;;;;;;;;;1.16;100.00;99172.23;67778;1278;1016481;-59
2023/01/26 14:54:30;;;;;;;;;;;;;;;1.12;100.00;99172.65;67818;1278;1016426;-58
2023/01/26 14:57:32;;;;;;;;;;;;;;;1.15;100.00;99169.67;67876;1278;1016339;-59
2023/01/26 15:00:35;;;;;;;;;;;;;;;1.15;100.00;99169.14;67813;1278;1016292;-58
2023/01/26 15:03:37;;;;;;;;;;;;;;;1.19;100.00;99170.96;67797;1278;1016676;-58
2023/01/26 15:06:40;;;;;;;;;;;;;;;1.09;100.00;99164.77;67831;1278;1016133;-58
2023/01/26 15:09:42;;;;;;;;;;;;;;;0.96;100.00;99160.70;67845;1278;1016393;-58
2023/01/26 15:12:44;;;;;;;;;;;;;;;0.97;100.00;99159.45;67752;1278;1016466;-58
2023/01/26 15:15:47;;;;;;;;;;;;;;;1.04;100.00;99165.04;67848;1278;1016497;-58
2023/01/26 15:18:50;;;;;;;;;;;;;;;0.97;100.00;99171.69;67763;1278;1016481;-58
2023/01/26 15:21:52;;;;;;;;;;;;;;;0.93;100.00;99173.31;67822;1278;1016279;-58
2023/01/26 15:24:55;;;;;;;;;;;;;;;0.80;100.00;99169.71;67818;1278;1015982;-58
2023/01/26 15:27:57;;;;;;;;;;;;;;;0.69;100.00;99167.48;67781;1278;1016460;-58
2023/01/26 15:30:59;;;;;;;;;;;;;;;0.69;100.00;99163.52;67818;1278;1017143;-58
2023/01/26 15:34:02;;;;;;;;;;;;;;;0.63;100.00;99166.20;67796;1278;1016224;-58
2023/01/26 15:37:04;;;;;;;;;;;;;;;0.58;100.00;99160.59;67797;1278;1016629;-58
2023/01/26 15:40:07;;;;;;;;;;;;;;;0.61;100.00;99161.93;67822;1278;1016438;-58
2023/01/26 15:43:10;;;;;;;;;;;;;;;0.76;100.00;99162.02;67801;1278;1016952;-58
2023/01/26 15:46:12;;;;;;;;;;;;;;;0.92;100.00;99163.00;67833;1278;1016304;-58
2023/01/26 15:49:18;;;;;;;;;;;;;;;1.13;100.00;99164.02;67834;1278;1016419;-59
2023/01/26 15:52:22;;;;;;;;;;;;;;;1.18;100.00;99160.83;67846;1278;1016887;-58
2023/01/26 15:55:24;;;;;;;;;;;;;;;1.26;100.00;99154.48;67768;1278;1016017;-58
2023/01/26 15:58:27;;;;;;;;;;;;;;;1.28;100.00;99150.15;67759;1278;1018217;-58
2023/01/26 16:01:30;;;;;;;;;;;;;;;1.24;100.00;99151.93;67804;1278;1016210;-58
2023/01/26 16:04:32;;;;;;;;;;;;;;;1.30;100.00;99156.48;67818;1278;1016260;-58
2023/01/26 16:07:34;;;;;;;;;;;;;;;1.31;100.00;99158.38;67744;1278;1016223;-58
2023/01/26 16:10:37;;;;;;;;;;;;;;;1.26;100.00;99164.13;67799;1278;1019382;-58
2023/01/26 16:13:42;;;;;;;;;;;;;;;1.26;100.00;99158.97;67789;1278;1016573;-58
2023/01/26 16:16:45;;;;;;;;;;;;;;;1.19;100.00;99161.67;67781;1278;1016413;-58
2023/01/26 16:19:47;;;;;;;;;;;;;;;1.23;100.00;99163.16;67856;1278;1015746;-59
2023/01/26 16:22:50;;;;;;;;;;;;;;;1.23;100.00;99164.88;67823;1278;1016238;-58